createdAt,value
2024-02-16T00:02:02.971Z,12.27
2024-02-16T00:04:29.855Z,12.26
2024-02-16T00:06:56.849Z,12.11
2024-02-16T00:09:23.826Z,12.16
2024-02-16T00:11:52.131Z,12.03
2024-02-16T00:14:19.031Z,11.90
2024-02-16T00:16:45.839Z,11.94
2024-02-16T00:19:12.850Z,11.86
2024-02-16T00:21:43.262Z,11.87
2024-02-16T00:24:10.972Z,11.80
2024-02-16T00:26:38.411Z,11.68
2024-02-16T00:29:05.865Z,11.72
2024-02-16T00:31:32.867Z,11.78
2024-02-16T00:33:59.971Z,11.72
2024-02-16T00:36:31.833Z,11.64
2024-02-16T00:38:59.644Z,11.64
2024-02-16T00:41:27.307Z,11.53
2024-02-16T00:43:54.232Z,11.54
2024-02-16T00:46:21.124Z,11.58
2024-02-16T00:48:48.544Z,11.60
2024-02-16T00:51:15.530Z,11.57
2024-02-16T00:53:42.704Z,11.46
2024-02-16T00:56:10.112Z,11.46
2024-02-16T00:58:37.727Z,11.49
2024-02-16T01:01:05.724Z,11.48
2024-02-16T01:03:32.901Z,11.51
2024-02-16T01:06:00.001Z,11.42
2024-02-16T01:08:28.572Z,11.38
2024-02-16T01:10:55.577Z,11.35
2024-02-16T01:13:22.519Z,11.42
2024-02-16T01:15:49.544Z,11.40
2024-02-16T01:18:16.937Z,11.50
2024-02-16T01:20:44.056Z,11.57
2024-02-16T01:23:10.791Z,11.46
2024-02-16T01:25:37.587Z,11.58
2024-02-16T01:28:04.599Z,11.57
2024-02-16T01:30:31.444Z,11.60
2024-02-16T01:32:58.404Z,11.53
2024-02-16T01:35:25.191Z,11.57
2024-02-16T01:37:51.914Z,11.56
2024-02-16T01:40:19.060Z,11.69
2024-02-16T01:42:45.977Z,11.63
2024-02-16T01:45:16.747Z,11.65
2024-02-16T01:47:45.372Z,11.55
2024-02-16T01:50:18.942Z,11.56
2024-02-16T01:52:47.832Z,11.58
2024-02-16T01:55:16.015Z,11.55
2024-02-16T01:57:47.217Z,11.55
2024-02-16T02:00:16.478Z,11.54
2024-02-16T02:02:46.929Z,11.59
2024-02-16T02:05:14.379Z,11.60
2024-02-16T02:07:41.215Z,11.64
2024-02-16T02:10:08.491Z,11.57
2024-02-16T02:12:35.299Z,11.57
2024-02-16T02:15:02.186Z,11.62
2024-02-16T02:17:29.234Z,11.58
2024-02-16T02:19:56.923Z,11.52
2024-02-16T02:22:23.832Z,11.49
2024-02-16T02:24:50.554Z,11.51
2024-02-16T02:27:18.042Z,11.53
2024-02-16T02:29:45.599Z,11.51
2024-02-16T02:32:13.238Z,11.46
2024-02-16T02:34:40.851Z,11.57
2024-02-16T02:37:07.859Z,11.41
2024-02-16T02:39:34.777Z,11.52
2024-02-16T02:42:01.898Z,11.46
2024-02-16T02:44:28.804Z,11.47
2024-02-16T02:46:55.635Z,11.45
2024-02-16T02:49:22.511Z,11.43
2024-02-16T02:51:49.316Z,11.44
2024-02-16T02:54:16.168Z,11.36
2024-02-16T02:56:43.618Z,11.41
2024-02-16T02:59:11.785Z,11.35
2024-02-16T03:01:38.647Z,11.32
2024-02-16T03:04:06.018Z,11.40
2024-02-16T03:06:33.056Z,11.32
2024-02-16T03:08:59.838Z,11.27
2024-02-16T03:11:26.993Z,11.36
2024-02-16T03:13:54.293Z,11.39
2024-02-16T03:16:21.062Z,11.34
2024-02-16T03:18:48.002Z,11.32
2024-02-16T03:21:19.063Z,11.34
2024-02-16T03:23:46.105Z,11.20
2024-02-16T03:26:19.886Z,11.31
2024-02-16T03:28:50.674Z,11.25
2024-02-16T03:31:22.334Z,11.17
2024-02-16T03:33:50.255Z,11.16
2024-02-16T03:36:17.545Z,11.21
2024-02-16T03:38:45.231Z,11.11
2024-02-16T03:41:18.865Z,11.29
2024-02-16T03:43:45.731Z,11.22
2024-02-16T03:46:12.488Z,11.26
2024-02-16T03:48:40.793Z,11.22
2024-02-16T03:51:08.104Z,11.35
2024-02-16T03:53:35.447Z,11.19
2024-02-16T03:56:02.204Z,11.23
2024-02-16T03:58:28.886Z,11.12
2024-02-16T04:00:56.129Z,11.27
2024-02-16T04:03:22.999Z,11.21
2024-02-16T04:05:49.874Z,11.16
2024-02-16T04:08:16.657Z,11.16
2024-02-16T04:10:43.509Z,11.13
2024-02-16T04:13:10.277Z,11.14
2024-02-16T04:15:37.118Z,11.13
2024-02-16T04:18:04.290Z,11.18
2024-02-16T04:20:31.188Z,11.09
2024-02-16T04:22:57.841Z,11.07
2024-02-16T04:25:24.794Z,11.16
2024-02-16T04:27:52.039Z,11.13
2024-02-16T04:30:18.951Z,11.09
2024-02-16T04:32:45.757Z,11.09
2024-02-16T04:35:13.399Z,11.11
2024-02-16T04:37:43.143Z,10.94
2024-02-16T04:40:13.381Z,11.01
2024-02-16T04:42:43.801Z,11.06
2024-02-16T04:45:16.825Z,10.99
2024-02-16T04:47:43.569Z,11.03
2024-02-16T04:50:11.060Z,10.93
2024-02-16T04:52:41.288Z,10.98
2024-02-16T04:55:08.975Z,11.00
2024-02-16T04:57:35.799Z,10.91
2024-02-16T05:00:03.683Z,10.84
2024-02-16T05:02:30.496Z,10.84
2024-02-16T05:04:59.220Z,10.80
2024-02-16T05:07:27.168Z,10.83
2024-02-16T05:09:59.222Z,10.87
2024-02-16T05:12:27.472Z,10.84
2024-02-16T05:14:54.984Z,10.83
2024-02-16T05:17:23.788Z,10.86
2024-02-16T05:19:55.217Z,10.82
2024-02-16T05:22:23.099Z,10.76
2024-02-16T05:24:50.334Z,10.70
2024-02-16T05:27:17.731Z,10.64
2024-02-16T05:29:45.462Z,10.75
2024-02-16T05:32:13.884Z,10.79
2024-02-16T05:34:40.798Z,10.80
2024-02-16T05:37:08.101Z,10.77
2024-02-16T05:39:44.449Z,10.71
2024-02-16T05:42:11.456Z,10.71
2024-02-16T05:44:38.420Z,10.69
2024-02-16T05:47:05.326Z,10.74
2024-02-16T05:49:32.307Z,10.68
2024-02-16T05:52:18.562Z,10.67
2024-02-16T05:54:49.536Z,10.65
2024-02-16T05:57:18.118Z,10.67
2024-02-16T05:59:46.678Z,10.64
2024-02-16T06:02:13.623Z,10.59
2024-02-16T06:04:40.839Z,10.64
2024-02-16T06:07:08.042Z,10.55
2024-02-16T06:09:36.542Z,10.62
2024-02-16T06:12:05.719Z,10.61
2024-02-16T06:14:33.458Z,10.57
2024-02-16T06:17:00.778Z,10.52
2024-02-16T06:19:28.583Z,10.63
2024-02-16T06:21:56.302Z,10.44
2024-02-16T06:24:26.178Z,10.48
2024-02-16T06:26:57.089Z,10.50
2024-02-16T06:29:25.273Z,10.46
2024-02-16T06:31:53.292Z,10.53
2024-02-16T06:34:21.144Z,10.55
2024-02-16T06:36:48.110Z,10.49
2024-02-16T06:39:19.928Z,10.52
2024-02-16T06:41:47.926Z,10.46
2024-02-16T06:44:15.512Z,10.35
2024-02-16T06:46:45.281Z,10.48
2024-02-16T06:49:12.042Z,10.63
2024-02-16T06:51:38.853Z,10.39
2024-02-16T06:54:05.939Z,10.50
2024-02-16T06:56:32.946Z,10.58
2024-02-16T06:58:59.694Z,10.46
2024-02-16T07:01:28.896Z,10.59
2024-02-16T07:03:56.209Z,10.53
2024-02-16T07:06:23.089Z,10.58
2024-02-16T07:08:49.976Z,10.52
2024-02-16T07:11:16.803Z,10.56
2024-02-16T07:13:54.903Z,10.59
2024-02-16T07:16:21.914Z,10.62
2024-02-16T07:18:48.748Z,10.56
2024-02-16T07:21:15.707Z,10.61
2024-02-16T07:23:42.466Z,10.80
2024-02-16T07:26:09.282Z,10.82
2024-02-16T07:28:37.185Z,10.77
2024-02-16T07:31:04.496Z,10.84
2024-02-16T07:33:31.951Z,10.85
2024-02-16T07:35:59.190Z,10.94
2024-02-16T07:38:26.096Z,10.95
2024-02-16T07:40:52.860Z,10.97
2024-02-16T07:43:20.089Z,11.08
2024-02-16T07:45:47.330Z,11.13
2024-02-16T07:48:14.570Z,11.17
2024-02-16T07:50:41.528Z,11.12
2024-02-16T07:53:08.370Z,11.22
2024-02-16T07:55:35.137Z,11.24
2024-02-16T07:58:01.916Z,11.19
2024-02-16T08:00:29.839Z,11.20
2024-02-16T08:02:56.796Z,11.25
2024-02-16T08:05:24.598Z,11.18
2024-02-16T08:07:51.544Z,11.24
2024-02-16T08:10:24.255Z,11.17
2024-02-16T08:12:51.923Z,11.28
2024-02-16T08:15:24.526Z,11.20
2024-02-16T08:17:55.395Z,11.31
2024-02-16T08:20:22.578Z,11.26
2024-02-16T08:22:49.631Z,11.31
2024-02-16T08:25:16.458Z,11.47
2024-02-16T08:27:43.805Z,11.56
2024-02-16T08:30:11.355Z,11.47
2024-02-16T08:32:38.485Z,11.45
2024-02-16T08:35:05.740Z,11.59
2024-02-16T08:37:32.704Z,11.66
2024-02-16T08:39:59.656Z,11.73
2024-02-16T08:42:26.459Z,11.72
2024-02-16T08:44:53.275Z,11.82
2024-02-16T08:47:20.166Z,11.92
2024-02-16T08:49:47.268Z,11.82
2024-02-16T08:52:14.472Z,11.88
2024-02-16T08:54:41.713Z,11.93
2024-02-16T08:57:08.703Z,12.06
2024-02-16T08:59:35.692Z,12.09
2024-02-16T09:02:02.793Z,12.16
2024-02-16T09:04:30.181Z,12.13
2024-02-16T09:06:57.091Z,12.15
2024-02-16T09:09:24.303Z,12.19
2024-02-16T09:11:51.215Z,12.23
2024-02-16T09:14:18.099Z,12.05
2024-02-16T09:16:44.860Z,12.20
2024-02-16T09:19:11.657Z,12.05
2024-02-16T09:21:38.428Z,12.15
2024-02-16T09:24:11.429Z,12.19
2024-02-16T09:26:38.397Z,12.20
2024-02-16T09:29:05.110Z,12.17
2024-02-16T09:31:31.808Z,12.21
2024-02-16T09:33:58.661Z,12.35
2024-02-16T09:36:25.998Z,12.25
2024-02-16T09:38:52.909Z,12.38
2024-02-16T09:41:20.133Z,12.35
2024-02-16T09:43:47.654Z,12.30
2024-02-16T09:46:16.438Z,12.19
2024-02-16T09:48:49.550Z,12.19
2024-02-16T09:51:17.436Z,12.20
2024-02-16T09:53:44.357Z,12.33
2024-02-16T09:56:10.998Z,12.42
2024-02-16T09:58:37.738Z,12.33
2024-02-16T10:01:05.387Z,12.57
2024-02-16T10:03:36.335Z,12.66
2024-02-16T10:06:12.985Z,12.73
2024-02-16T10:08:53.295Z,12.84
2024-02-16T10:11:22.398Z,12.92
2024-02-16T10:13:57.598Z,12.95
2024-02-16T10:16:24.559Z,13.06
2024-02-16T10:18:51.604Z,13.11
2024-02-16T10:21:28.792Z,13.09
2024-02-16T10:24:09.692Z,13.13
2024-02-16T10:26:40.763Z,13.16
2024-02-16T10:29:10.373Z,13.02
2024-02-16T10:31:38.054Z,13.15
2024-02-16T10:34:07.649Z,13.04
2024-02-16T10:36:36.542Z,13.03
2024-02-16T10:39:06.308Z,13.06
2024-02-16T10:41:38.946Z,13.01
2024-02-16T10:44:06.898Z,13.00
2024-02-16T10:46:35.291Z,12.92
2024-02-16T10:49:07.384Z,13.18
2024-02-16T10:51:58.343Z,13.05
2024-02-16T10:54:30.289Z,13.12
2024-02-16T10:56:57.195Z,13.08
2024-02-16T10:59:24.618Z,13.06
2024-02-16T11:02:01.358Z,13.00
2024-02-16T11:04:40.756Z,12.99
2024-02-16T11:07:17.847Z,13.09
2024-02-16T11:09:46.221Z,13.02
2024-02-16T11:12:16.407Z,13.14
2024-02-16T11:14:44.834Z,13.08
2024-02-16T11:17:13.530Z,13.23
2024-02-16T11:19:47.345Z,13.29
2024-02-16T11:22:19.485Z,13.46
2024-02-16T11:24:51.472Z,13.39
2024-02-16T11:27:21.343Z,13.39
2024-02-16T11:29:49.663Z,13.49
2024-02-16T11:32:16.506Z,13.57
2024-02-16T11:34:43.630Z,13.47
2024-02-16T11:37:13.607Z,13.59
2024-02-16T11:39:42.097Z,13.87
2024-02-16T11:42:14.243Z,13.68
2024-02-16T11:44:52.553Z,13.82
2024-02-16T11:47:28.564Z,13.56
2024-02-16T11:50:13.012Z,13.66
2024-02-16T11:52:40.281Z,13.84
2024-02-16T11:55:12.256Z,13.64
2024-02-16T11:57:40.110Z,13.59
2024-02-16T12:00:16.101Z,13.51
2024-02-16T12:02:42.999Z,13.67
2024-02-16T12:05:10.352Z,13.59
2024-02-16T12:07:43.316Z,13.66
2024-02-16T12:10:12.325Z,13.97
2024-02-16T12:12:39.160Z,14.00
2024-02-16T12:15:07.080Z,13.97
2024-02-16T12:17:34.599Z,13.87
2024-02-16T12:20:01.656Z,13.96
2024-02-16T12:22:28.567Z,13.95
2024-02-16T12:24:55.281Z,13.93
2024-02-16T12:27:22.367Z,13.86
2024-02-16T12:29:49.225Z,14.15
2024-02-16T12:32:21.236Z,14.03
2024-02-16T12:34:48.591Z,13.93
2024-02-16T12:37:15.519Z,14.08
2024-02-16T12:39:42.813Z,14.06
2024-02-16T12:42:10.002Z,14.08
2024-02-16T12:44:36.916Z,14.12
2024-02-16T12:47:04.193Z,14.11
2024-02-16T12:49:31.420Z,14.04
2024-02-16T12:51:58.346Z,14.03
2024-02-16T12:54:25.236Z,13.99
2024-02-16T12:56:52.836Z,13.95
2024-02-16T12:59:19.738Z,14.01
2024-02-16T13:01:47.616Z,14.00
2024-02-16T13:04:22.062Z,14.01
2024-02-16T13:06:50.566Z,14.04
2024-02-16T13:09:21.111Z,14.07
2024-02-16T13:11:55.393Z,13.95
2024-02-16T13:14:23.012Z,13.98
2024-02-16T13:16:49.819Z,13.96
2024-02-16T13:19:19.268Z,14.02
2024-02-16T13:21:46.411Z,14.01
2024-02-16T13:24:13.269Z,13.95
2024-02-16T13:26:41.120Z,13.84
2024-02-16T13:29:07.786Z,13.79
2024-02-16T13:31:34.874Z,13.75
2024-02-16T13:34:02.268Z,13.78
2024-02-16T13:36:29.234Z,13.68
2024-02-16T13:38:56.090Z,13.65
2024-02-16T13:41:22.932Z,13.66
2024-02-16T13:43:49.791Z,13.60
2024-02-16T13:46:16.589Z,13.69
2024-02-16T13:48:44.092Z,13.60
2024-02-16T13:51:11.015Z,13.51
2024-02-16T13:53:38.272Z,13.42
2024-02-16T13:56:07.031Z,13.46
2024-02-16T13:58:35.755Z,13.43
2024-02-16T14:01:04.717Z,13.36
2024-02-16T14:03:32.208Z,13.28
2024-02-16T14:06:00.620Z,13.34
2024-02-16T14:08:28.117Z,13.29
2024-02-16T14:10:55.006Z,13.28
2024-02-16T14:13:22.650Z,13.29
2024-02-16T14:15:49.742Z,13.26
2024-02-16T14:18:22.394Z,13.18
2024-02-16T14:20:56.850Z,13.13
2024-02-16T14:23:23.593Z,13.15
2024-02-16T14:25:50.531Z,13.13
2024-02-16T14:28:17.240Z,13.11
2024-02-16T14:30:44.145Z,13.04
2024-02-16T14:33:11.634Z,13.01
2024-02-16T14:35:38.917Z,13.01
2024-02-16T14:38:06.463Z,13.05
2024-02-16T14:40:34.529Z,12.95
2024-02-16T14:43:02.629Z,12.92
2024-02-16T14:45:29.551Z,12.93
2024-02-16T14:47:56.702Z,12.78
2024-02-16T14:50:23.612Z,12.65
2024-02-16T14:52:50.515Z,12.57
2024-02-16T14:55:17.799Z,12.45
2024-02-16T14:57:48.130Z,12.39
2024-02-16T15:00:15.465Z,12.34
2024-02-16T15:02:43.905Z,12.27
2024-02-16T15:05:11.029Z,12.19
2024-02-16T15:07:37.815Z,12.00
2024-02-16T15:10:05.052Z,11.69
2024-02-16T15:12:34.884Z,11.49
2024-02-16T15:15:01.790Z,11.34
2024-02-16T15:17:28.842Z,11.29
2024-02-16T15:19:56.057Z,11.13
2024-02-16T15:22:24.031Z,11.18
2024-02-16T15:24:51.140Z,11.10
2024-02-16T15:27:18.158Z,11.04
2024-02-16T15:29:45.971Z,11.02
2024-02-16T15:32:12.789Z,10.97
2024-02-16T15:34:40.459Z,10.92
2024-02-16T15:37:07.493Z,10.89
2024-02-16T15:39:34.412Z,10.85
2024-02-16T15:42:01.433Z,10.85
2024-02-16T15:44:28.250Z,10.81
2024-02-16T15:46:56.172Z,10.74
2024-02-16T15:49:23.149Z,10.69
2024-02-16T15:51:50.180Z,10.68
2024-02-16T15:54:17.068Z,10.63
2024-02-16T15:56:43.854Z,10.59
2024-02-16T15:59:10.880Z,10.57
2024-02-16T16:01:38.389Z,10.50
2024-02-16T16:04:05.680Z,10.39
2024-02-16T16:06:32.642Z,10.36
2024-02-16T16:08:59.576Z,10.35
2024-02-16T16:11:26.456Z,10.33
2024-02-16T16:13:53.287Z,10.32
2024-02-16T16:16:20.069Z,10.25
2024-02-16T16:18:47.628Z,10.27
2024-02-16T16:21:14.441Z,10.26
2024-02-16T16:23:41.314Z,10.28
2024-02-16T16:26:08.899Z,10.16
2024-02-16T16:28:35.789Z,10.14
2024-02-16T16:31:02.635Z,10.11
2024-02-16T16:33:29.859Z,10.12
2024-02-16T16:35:56.962Z,10.12
2024-02-16T16:38:24.103Z,10.10
2024-02-16T16:40:50.908Z,10.06
2024-02-16T16:43:19.300Z,10.06
2024-02-16T16:45:46.133Z,9.99
2024-02-16T16:48:13.317Z,10.00
2024-02-16T16:50:41.199Z,9.99
2024-02-16T16:53:08.027Z,9.95
2024-02-16T16:55:34.869Z,9.97
2024-02-16T16:58:01.581Z,9.94
2024-02-16T17:00:28.731Z,9.87
2024-02-16T17:02:55.793Z,9.95
2024-02-16T17:05:22.644Z,9.95
2024-02-16T17:07:49.839Z,9.92
2024-02-16T17:10:17.168Z,9.90
2024-02-16T17:12:45.749Z,9.84
2024-02-16T17:15:19.798Z,9.92
2024-02-16T17:17:54.018Z,9.84
2024-02-16T17:20:26.324Z,9.88
2024-02-16T17:22:54.900Z,9.91
2024-02-16T17:25:23.510Z,9.92
2024-02-16T17:27:51.160Z,9.91
2024-02-16T17:30:21.156Z,9.91
2024-02-16T17:32:52.845Z,9.87
2024-02-16T17:35:20.387Z,9.91
2024-02-16T17:37:47.462Z,9.87
2024-02-16T17:40:15.047Z,9.81
2024-02-16T17:42:42.236Z,9.83
2024-02-16T17:45:10.096Z,9.84
2024-02-16T17:47:38.990Z,9.87
2024-02-16T17:50:07.318Z,9.87
2024-02-16T17:52:34.276Z,9.84
2024-02-16T17:55:05.450Z,9.82
2024-02-16T17:57:35.186Z,9.86
2024-02-16T18:00:02.166Z,9.82
2024-02-16T18:02:39.070Z,9.78
2024-02-16T18:05:08.678Z,9.73
2024-02-16T18:07:35.563Z,9.72
2024-02-16T18:10:05.860Z,9.67
2024-02-16T18:12:33.970Z,9.72
2024-02-16T18:15:01.042Z,9.63
2024-02-16T18:17:27.936Z,9.63
2024-02-16T18:19:56.023Z,9.64
2024-02-16T18:22:23.377Z,9.61
2024-02-16T18:24:50.285Z,9.59
2024-02-16T18:27:18.476Z,9.65
2024-02-16T18:29:45.733Z,9.60
2024-02-16T18:32:13.480Z,9.60
2024-02-16T18:34:41.088Z,9.55
2024-02-16T18:37:08.176Z,9.53
2024-02-16T18:39:35.101Z,9.50
2024-02-16T18:42:02.330Z,9.40
2024-02-16T18:44:29.327Z,9.44
2024-02-16T18:46:56.881Z,9.40
2024-02-16T18:49:24.092Z,9.38
2024-02-16T18:51:51.170Z,9.33
2024-02-16T18:54:18.199Z,9.26
2024-02-16T18:57:01.916Z,9.14
2024-02-16T18:59:29.584Z,9.15
2024-02-16T19:02:03.077Z,9.17
2024-02-16T19:04:31.207Z,9.13
2024-02-16T19:06:58.736Z,9.09
2024-02-16T19:09:26.166Z,9.18
2024-02-16T19:11:56.678Z,9.17
2024-02-16T19:14:25.257Z,9.14
2024-02-16T19:16:53.385Z,9.11
2024-02-16T19:19:20.594Z,9.07
2024-02-16T19:21:55.256Z,9.04
2024-02-16T19:24:29.172Z,9.00
2024-02-16T19:27:04.754Z,8.94
2024-02-16T19:29:31.478Z,8.99
2024-02-16T19:31:58.277Z,8.98
2024-02-16T19:34:26.358Z,8.94
2024-02-16T19:36:53.339Z,8.96
2024-02-16T19:39:20.789Z,8.96
2024-02-16T19:41:48.743Z,8.98
2024-02-16T19:44:22.201Z,8.96
2024-02-16T19:46:50.053Z,8.99
2024-02-16T19:49:16.934Z,8.91
2024-02-16T19:51:43.838Z,8.87
2024-02-16T19:54:10.908Z,8.84
2024-02-16T19:56:37.638Z,8.77
2024-02-16T19:59:04.369Z,8.72
2024-02-16T20:01:31.258Z,8.71
2024-02-16T20:03:58.322Z,8.68
2024-02-16T20:06:29.560Z,8.60
2024-02-16T20:08:56.997Z,8.61
2024-02-16T20:11:24.089Z,8.57
2024-02-16T20:13:52.185Z,8.51
2024-02-16T20:16:19.282Z,8.52
2024-02-16T20:18:46.662Z,8.42
2024-02-16T20:21:13.583Z,8.40
2024-02-16T20:23:40.536Z,8.43
2024-02-16T20:26:07.536Z,8.38
2024-02-16T20:28:34.244Z,8.41
2024-02-16T20:31:05.597Z,8.45
2024-02-16T20:33:33.199Z,8.38
2024-02-16T20:36:00.124Z,8.32
2024-02-16T20:38:26.978Z,8.34
2024-02-16T20:40:53.664Z,8.35
2024-02-16T20:43:20.431Z,8.33
2024-02-16T20:45:47.211Z,8.39
2024-02-16T20:48:14.122Z,8.23
2024-02-16T20:50:41.030Z,8.30
2024-02-16T20:53:07.836Z,8.30
2024-02-16T20:55:34.966Z,8.39
2024-02-16T20:58:01.819Z,8.35
2024-02-16T21:00:28.622Z,8.37
2024-02-16T21:02:55.417Z,8.35
2024-02-16T21:05:25.248Z,8.40
2024-02-16T21:07:57.816Z,8.38
2024-02-16T21:10:24.580Z,8.39
2024-02-16T21:12:51.478Z,8.41
2024-02-16T21:15:18.512Z,8.45
2024-02-16T21:17:45.893Z,8.45
2024-02-16T21:20:15.568Z,8.42
2024-02-16T21:22:42.363Z,8.46
2024-02-16T21:25:09.484Z,8.47
2024-02-16T21:27:36.316Z,8.40
2024-02-16T21:30:03.367Z,8.45
2024-02-16T21:32:31.130Z,8.59
2024-02-16T21:34:58.647Z,8.42
2024-02-16T21:37:25.606Z,8.37
2024-02-16T21:39:52.570Z,8.32
2024-02-16T21:42:19.466Z,8.31
2024-02-16T21:44:46.252Z,8.28
2024-02-16T21:47:14.629Z,8.29
2024-02-16T21:49:41.887Z,8.39
2024-02-16T21:52:08.799Z,8.30
2024-02-16T21:54:36.784Z,8.30
2024-02-16T21:57:04.119Z,8.30
2024-02-16T21:59:30.884Z,8.31
2024-02-16T22:01:57.680Z,8.33
2024-02-16T22:04:26.142Z,8.29
2024-02-16T22:06:54.639Z,8.30
2024-02-16T22:09:21.908Z,8.29
2024-02-16T22:11:48.804Z,8.27
2024-02-16T22:14:15.995Z,8.27
2024-02-16T22:16:42.769Z,8.21
2024-02-16T22:19:09.876Z,8.24
2024-02-16T22:21:42.461Z,8.22
2024-02-16T22:24:11.620Z,8.24
2024-02-16T22:26:41.306Z,8.23
2024-02-16T22:29:08.537Z,8.26
2024-02-16T22:31:41.304Z,8.27
2024-02-16T22:34:10.789Z,8.28
2024-02-16T22:36:37.758Z,8.31
2024-02-16T22:39:05.575Z,8.32
2024-02-16T22:41:32.668Z,8.32
2024-02-16T22:43:59.924Z,8.26
2024-02-16T22:46:26.701Z,8.32
2024-02-16T22:48:53.649Z,8.25
2024-02-16T22:51:20.625Z,8.24
2024-02-16T22:53:47.682Z,8.23
2024-02-16T22:56:14.459Z,8.22
2024-02-16T22:58:41.270Z,8.22
2024-02-16T23:01:08.222Z,8.19
2024-02-16T23:03:35.274Z,8.20
2024-02-16T23:06:04.393Z,8.20
2024-02-16T23:08:31.716Z,8.12
2024-02-16T23:10:59.009Z,8.16
2024-02-16T23:13:26.851Z,8.18
2024-02-16T23:15:53.841Z,8.11
2024-02-16T23:18:21.454Z,7.97
2024-02-16T23:20:48.705Z,7.71
2024-02-16T23:23:16.321Z,7.59
2024-02-16T23:25:44.644Z,7.61
2024-02-16T23:28:16.234Z,7.62
2024-02-16T23:30:43.644Z,7.60
2024-02-16T23:33:14.078Z,7.60
2024-02-16T23:35:41.272Z,7.60
2024-02-16T23:38:08.087Z,7.48
2024-02-16T23:40:34.985Z,7.57
2024-02-16T23:43:01.793Z,7.45
2024-02-16T23:45:36.083Z,7.48
2024-02-16T23:48:03.180Z,7.46
2024-02-16T23:50:31.767Z,7.41
2024-02-16T23:52:59.178Z,7.41
2024-02-16T23:55:26.553Z,7.43
2024-02-16T23:57:54.464Z,7.36
